Time;durP1;ratioP1;P1;durP2;ratioP2;P2;SDS_P1;SDS_P2;PMS_P1;PMS_P2;Temp;Humidity;BMP_temperature;BMP_pressure;BME280_temperature;BME280_humidity;BME280_pressure;Samples;Min_cycle;Max_cycle;Signal;HPM_P1;HPM_P2
2024/02/27 00:00:11;;;;;;;0.70;0.70;;;17.10;69.00;;;;;;4993344;28;20497;-78
2024/02/27 00:02:38;;;;;;;0.60;0.60;;;17.10;69.10;;;;;;4976008;28;20515;-79
2024/02/27 00:05:03;;;;;;;0.63;0.50;;;17.10;69.10;;;;;;4987443;28;20096;-79
2024/02/27 00:07:29;;;;;;;0.68;0.68;;;17.10;69.10;;;;;;4985750;28;20046;-78
2024/02/27 00:09:57;;;;;;;0.93;0.85;;;17.10;69.20;;;;;;4956309;28;20133;-78
2024/02/27 00:12:22;;;;;;;1.63;0.70;;;17.10;69.20;;;;;;4970294;28;20125;-78
2024/02/27 00:14:48;;;;;;;0.60;0.60;;;17.00;69.20;;;;;;4968663;28;20137;-78
2024/02/27 00:17:13;;;;;;;0.93;0.70;;;17.00;69.20;;;;;;4999506;28;20124;-78
2024/02/27 00:19:39;;;;;;;1.17;0.60;;;17.00;69.20;;;;;;4983838;28;20523;-78
2024/02/27 00:22:04;;;;;;;0.70;0.70;;;17.00;69.30;;;;;;4966733;28;20167;-78
2024/02/27 00:24:30;;;;;;;0.50;0.50;;;17.00;69.30;;;;;;4986194;28;20055;-79
2024/02/27 00:26:55;;;;;;;1.00;0.60;;;17.00;69.30;;;;;;4997713;28;20054;-79
2024/02/27 00:29:21;;;;;;;1.17;0.77;;;17.00;69.30;;;;;;4980459;28;20069;-78
2024/02/27 00:31:47;;;;;;;0.95;0.73;;;16.90;69.30;;;;;;4974029;28;20035;-79
2024/02/27 00:34:14;;;;;;;0.50;0.50;;;17.00;69.40;;;;;;4967302;28;20061;-79
2024/02/27 00:36:39;;;;;;;1.35;0.85;;;16.90;69.30;;;;;;4973586;28;20049;-78
2024/02/27 00:39:05;;;;;;;1.17;0.77;;;16.90;69.40;;;;;;4975575;28;20125;-78
2024/02/27 00:41:30;;;;;;;0.70;0.70;;;16.90;69.40;;;;;;4992590;28;20034;-79
2024/02/27 00:43:56;;;;;;;0.50;0.50;;;16.90;69.30;;;;;;4987482;28;20050;-78
2024/02/27 00:46:21;;;;;;;0.70;0.50;;;16.90;69.40;;;;;;4980265;28;20042;-79
2024/02/27 00:48:47;;;;;;;0.70;0.70;;;16.90;69.50;;;;;;4994281;28;20573;-78
2024/02/27 00:51:12;;;;;;;1.02;0.65;;;16.80;69.50;;;;;;4976324;28;20039;-78
2024/02/27 00:53:39;;;;;;;0.50;0.50;;;16.80;69.40;;;;;;4970345;28;20042;-78
2024/02/27 00:56:05;;;;;;;0.40;0.40;;;16.80;69.40;;;;;;4969884;28;20058;-78
2024/02/27 00:58:31;;;;;;;0.60;0.50;;;16.80;69.50;;;;;;4988352;28;20047;-78
2024/02/27 01:00:56;;;;;;;0.93;0.70;;;16.80;69.50;;;;;;4974156;28;20049;-79
2024/02/27 01:03:22;;;;;;;0.60;0.50;;;16.80;69.60;;;;;;4988383;28;20049;-78
2024/02/27 01:05:47;;;;;;;0.60;0.60;;;16.80;69.50;;;;;;4988895;28;20046;-78
2024/02/27 01:08:13;;;;;;;0.65;0.65;;;16.80;69.70;;;;;;4996320;28;20106;-78
2024/02/27 01:10:38;;;;;;;0.60;0.60;;;16.70;69.60;;;;;;4973094;28;20097;-78
2024/02/27 01:13:04;;;;;;;0.40;0.40;;;16.70;69.60;;;;;;4988197;28;20523;-78
2024/02/27 01:15:29;;;;;;;0.60;0.50;;;16.70;69.70;;;;;;4986834;28;20034;-78
2024/02/27 01:17:55;;;;;;;0.57;0.50;;;16.70;69.70;;;;;;4948657;28;20126;-78
2024/02/27 01:20:21;;;;;;;0.80;0.50;;;16.70;69.70;;;;;;4979313;28;20538;-78
2024/02/27 01:22:46;;;;;;;0.60;0.50;;;16.70;69.80;;;;;;4956181;28;20416;-78
2024/02/27 01:25:12;;;;;;;0.60;0.60;;;16.70;69.80;;;;;;4971361;28;20039;-78
2024/02/27 01:27:38;;;;;;;0.80;0.73;;;16.60;69.70;;;;;;4973846;28;20074;-78
2024/02/27 01:30:04;;;;;;;0.47;0.47;;;16.70;69.80;;;;;;4993767;28;20438;-78
2024/02/27 01:32:30;;;;;;;0.50;0.50;;;16.60;69.80;;;;;;4969073;28;20085;-78
2024/02/27 01:34:57;;;;;;;0.55;0.50;;;16.60;69.80;;;;;;5008241;28;20507;-78
2024/02/27 01:37:23;;;;;;;0.70;0.57;;;16.60;69.80;;;;;;4972194;28;20042;-78
2024/02/27 01:39:48;;;;;;;0.70;0.60;;;16.60;69.90;;;;;;4988470;28;20506;-78
2024/02/27 01:42:14;;;;;;;0.47;0.47;;;16.60;69.90;;;;;;4990266;28;20047;-78
2024/02/27 01:44:51;;;;;;;0.93;0.70;;;16.60;69.90;;;;;;4971306;28;20050;-78
2024/02/27 01:47:17;;;;;;;0.55;0.55;;;16.60;70.00;;;;;;4986477;28;20034;-78
2024/02/27 01:49:42;;;;;;;0.45;0.45;;;16.60;70.00;;;;;;4972680;28;20057;-77
2024/02/27 01:52:08;;;;;;;0.70;0.50;;;16.50;69.90;;;;;;4968258;28;20043;-78
2024/02/27 01:54:34;;;;;;;0.52;0.45;;;16.50;70.00;;;;;;4988284;28;20049;-79
2024/02/27 01:56:59;;;;;;;0.75;0.30;;;16.50;70.10;;;;;;4987284;28;20511;-79
2024/02/27 01:59:25;;;;;;;0.55;0.40;;;16.50;69.50;;;;;;4983184;28;20529;-79
2024/02/27 02:01:51;;;;;;;0.43;0.40;;;16.50;70.00;;;;;;4994335;28;20065;-78
2024/02/27 02:04:17;;;;;;;0.65;0.50;;;16.50;70.20;;;;;;4986444;28;20038;-78
2024/02/27 02:06:43;;;;;;;0.40;0.40;;;16.50;70.10;;;;;;4971050;28;20061;-78
2024/02/27 02:09:08;;;;;;;0.50;0.43;;;16.50;70.10;;;;;;4990171;28;20041;-79
2024/02/27 02:11:34;;;;;;;0.88;0.55;;;16.40;70.10;;;;;;4980386;28;20053;-78
2024/02/27 02:14:01;;;;;;;0.75;0.47;;;16.40;70.20;;;;;;5013677;28;20558;-78
2024/02/27 02:16:26;;;;;;;0.43;0.40;;;16.40;70.30;;;;;;4971205;28;20054;-78
2024/02/27 02:18:52;;;;;;;0.47;0.47;;;16.40;70.20;;;;;;4989558;28;20134;-78
2024/02/27 02:21:18;;;;;;;0.38;0.30;;;16.40;70.30;;;;;;4986333;28;20137;-79
2024/02/27 02:23:43;;;;;;;0.55;0.52;;;16.40;70.30;;;;;;4971691;28;20039;-78
2024/02/27 02:26:09;;;;;;;0.50;0.40;;;16.40;70.20;;;;;;4999520;28;20043;-78
2024/02/27 02:28:34;;;;;;;0.63;0.40;;;16.40;70.30;;;;;;4971223;28;20080;-78
2024/02/27 02:31:00;;;;;;;0.50;0.40;;;16.40;70.30;;;;;;4981420;28;20034;-78
2024/02/27 02:33:27;;;;;;;0.70;0.43;;;16.30;69.90;;;;;;4969128;28;20054;-78
2024/02/27 02:35:52;;;;;;;0.52;0.40;;;16.30;69.20;;;;;;4974201;28;20053;-78
2024/02/27 02:38:18;;;;;;;0.73;0.50;;;16.40;70.30;;;;;;4986571;28;20576;-78
2024/02/27 02:40:44;;;;;;;0.82;0.35;;;16.30;70.30;;;;;;4987663;28;20077;-78
2024/02/27 02:43:09;;;;;;;0.40;0.40;;;16.30;70.30;;;;;;4979982;28;20528;-78
2024/02/27 02:45:35;;;;;;;0.55;0.32;;;16.30;70.90;;;;;;4968817;28;20435;-79
2024/02/27 02:48:00;;;;;;;0.40;0.40;;;16.30;70.10;;;;;;4987995;28;20043;-78
2024/02/27 02:50:29;;;;;;;1.15;0.57;;;16.30;69.50;;;;;;5002065;28;20050;-78
2024/02/27 02:52:58;;;;;;;0.47;0.47;;;16.30;70.30;;;;;;4987186;28;20049;-78
2024/02/27 02:55:23;;;;;;;0.38;0.38;;;16.30;70.10;;;;;;4987388;28;20057;-78
2024/02/27 02:57:49;;;;;;;1.10;0.40;;;16.30;69.50;;;;;;4987126;28;20042;-79
2024/02/27 03:00:15;;;;;;;1.60;0.60;;;16.30;69.70;;;;;;4982904;28;20088;-78
2024/02/27 03:02:40;;;;;;;0.60;0.60;;;16.30;70.40;;;;;;5007460;28;20136;-78
2024/02/27 03:05:06;;;;;;;1.27;0.40;;;16.30;70.20;;;;;;4983347;28;20130;-79
2024/02/27 03:07:32;;;;;;;0.63;0.40;;;16.30;69.70;;;;;;5003593;28;20487;-78
2024/02/27 03:09:57;;;;;;;0.45;0.45;;;16.30;70.00;;;;;;4987308;28;20519;-79
2024/02/27 03:12:23;;;;;;;0.35;0.35;;;16.20;70.20;;;;;;4988886;28;20081;-78
2024/02/27 03:14:49;;;;;;;0.50;0.40;;;16.20;69.40;;;;;;4985401;28;20436;-78
2024/02/27 03:17:15;;;;;;;0.77;0.60;;;16.30;69.90;;;;;;4985776;28;20046;-78
2024/02/27 03:19:41;;;;;;;1.15;0.30;;;16.20;69.60;;;;;;4984498;28;20046;-78
2024/02/27 03:22:08;;;;;;;0.52;0.30;;;16.20;70.00;;;;;;4967476;28;20051;-78
2024/02/27 03:24:33;;;;;;;0.60;0.35;;;16.20;70.00;;;;;;4986267;28;20057;-79
2024/02/27 03:26:59;;;;;;;0.40;0.30;;;16.20;70.50;;;;;;4967727;28;20050;-78
2024/02/27 03:29:25;;;;;;;0.47;0.40;;;16.20;69.60;;;;;;4986014;28;20041;-78
2024/02/27 03:31:51;;;;;;;0.30;0.30;;;16.20;70.20;;;;;;4985891;28;20054;-79
2024/02/27 03:34:16;;;;;;;2.10;0.60;;;16.20;69.70;;;;;;4985287;28;20041;-79
2024/02/27 03:36:42;;;;;;;1.00;0.55;;;16.20;70.50;;;;;;4969638;28;20074;-79
2024/02/27 03:39:07;;;;;;;1.20;0.55;;;16.20;70.50;;;;;;4986751;28;20038;-79
2024/02/27 03:41:33;;;;;;;0.40;0.40;;;16.20;70.50;;;;;;4986480;28;20507;-79
2024/02/27 03:43:58;;;;;;;0.40;0.30;;;16.10;70.40;;;;;;5001336;28;20038;-79
2024/02/27 03:46:24;;;;;;;0.52;0.40;;;16.20;69.50;;;;;;4982380;28;20075;-79
2024/02/27 03:48:50;;;;;;;0.45;0.40;;;16.10;70.30;;;;;;4988552;28;20035;-80
2024/02/27 03:51:15;;;;;;;0.30;0.30;;;16.10;71.40;;;;;;4972927;28;20038;-79
2024/02/27 03:53:41;;;;;;;0.40;0.30;;;16.10;70.10;;;;;;4987116;28;20882;-80
2024/02/27 03:56:07;;;;;;;0.40;0.40;;;16.10;70.40;;;;;;4991146;28;20043;-79
2024/02/27 03:58:35;;;;;;;0.40;0.40;;;16.10;69.80;;;;;;4987787;28;20049;-79
2024/02/27 04:01:00;;;;;;;0.68;0.38;;;16.10;70.10;;;;;;4987959;28;20050;-79
2024/02/27 04:03:26;;;;;;;0.65;0.40;;;16.10;70.50;;;;;;4991399;28;20042;-78
2024/02/27 04:05:51;;;;;;;0.30;0.30;;;16.10;70.00;;;;;;4993255;28;20034;-79
2024/02/27 04:08:17;;;;;;;0.30;0.30;;;16.10;70.10;;;;;;4983048;28;20125;-79
2024/02/27 04:10:43;;;;;;;0.30;0.20;;;16.10;70.60;;;;;;4972290;28;20132;-79
2024/02/27 04:13:08;;;;;;;0.68;0.45;;;16.10;69.60;;;;;;4986955;28;20054;-79
2024/02/27 04:15:34;;;;;;;0.30;0.30;;;16.10;69.50;;;;;;4992208;28;20463;-78
2024/02/27 04:18:00;;;;;;;0.47;0.38;;;16.10;69.50;;;;;;4985439;28;20454;-78
2024/02/27 04:20:26;;;;;;;0.47;0.43;;;16.10;70.60;;;;;;5008939;28;20499;-77
2024/02/27 04:22:51;;;;;;;0.50;0.30;;;16.10;69.60;;;;;;4974379;28;20124;-77
2024/02/27 04:25:17;;;;;;;0.85;0.50;;;16.10;69.40;;;;;;4973627;28;20046;-77
2024/02/27 04:27:42;;;;;;;0.40;0.40;;;16.10;69.50;;;;;;4960211;28;20089;-77
2024/02/27 04:30:09;;;;;;;0.22;0.22;;;16.00;69.00;;;;;;4994299;28;20047;-77
2024/02/27 04:32:34;;;;;;;0.90;0.30;;;16.10;69.70;;;;;;4989751;28;20561;-78
2024/02/27 04:35:00;;;;;;;0.55;0.50;;;16.00;69.90;;;;;;4970461;28;20078;-78
2024/02/27 04:37:26;;;;;;;0.22;0.20;;;16.10;69.30;;;;;;4969847;28;20046;-78
2024/02/27 04:39:52;;;;;;;0.63;0.55;;;16.10;69.20;;;;;;4972980;28;20089;-78
2024/02/27 04:42:18;;;;;;;0.65;0.40;;;16.00;70.10;;;;;;4993074;28;20046;-78
2024/02/27 04:44:43;;;;;;;0.40;0.40;;;16.00;70.30;;;;;;4972222;28;20078;-78
2024/02/27 04:47:09;;;;;;;0.30;0.30;;;16.00;70.50;;;;;;4976485;28;21673;-78
2024/02/27 04:49:34;;;;;;;0.40;0.30;;;16.00;70.40;;;;;;4999284;28;20042;-79
2024/02/27 04:52:00;;;;;;;0.98;0.28;;;16.00;70.10;;;;;;4977097;28;20041;-79
2024/02/27 04:54:26;;;;;;;0.50;0.30;;;16.00;69.60;;;;;;4988674;28;20066;-79
2024/02/27 04:56:51;;;;;;;0.38;0.30;;;16.00;69.70;;;;;;4985192;28;20121;-80
2024/02/27 04:59:17;;;;;;;0.40;0.40;;;16.00;70.50;;;;;;4973284;28;20050;-80
2024/02/27 05:01:48;;;;;;;0.40;0.30;;;16.00;70.50;;;;;;4993623;28;20073;-80
2024/02/27 05:04:14;;;;;;;0.85;0.50;;;16.00;69.80;;;;;;4987284;28;20042;-79
2024/02/27 05:06:40;;;;;;;1.35;0.32;;;16.00;70.60;;;;;;4985622;28;20114;-80
2024/02/27 05:09:07;;;;;;;0.50;0.40;;;16.00;70.60;;;;;;4991842;28;20047;-80
2024/02/27 05:11:32;;;;;;;0.52;0.50;;;16.00;70.30;;;;;;4988166;28;20137;-80
2024/02/27 05:13:58;;;;;;;0.50;0.50;;;16.00;70.70;;;;;;4986684;28;20054;-80
2024/02/27 05:16:23;;;;;;;0.55;0.55;;;16.00;71.50;;;;;;4991390;28;20041;-79
2024/02/27 05:18:49;;;;;;;0.60;0.50;;;16.00;70.60;;;;;;4995364;28;20053;-81
2024/02/27 05:21:19;;;;;;;0.60;0.30;;;16.00;70.60;;;;;;4986751;28;20092;-80
2024/02/27 05:23:45;;;;;;;0.50;0.50;;;16.00;70.60;;;;;;4988803;28;20161;-81
2024/02/27 05:26:11;;;;;;;0.88;0.32;;;16.00;70.60;;;;;;4993538;28;20105;-80
2024/02/27 05:28:37;;;;;;;1.50;0.20;;;16.00;70.70;;;;;;4990278;28;20462;-80
2024/02/27 05:31:24;;;;;;;0.77;0.38;;;16.00;70.60;;;;;;4983825;28;20050;-81
2024/02/27 05:33:50;;;;;;;0.52;0.50;;;16.00;70.50;;;;;;4984542;28;20069;-80
2024/02/27 05:36:15;;;;;;;0.63;0.30;;;15.90;70.50;;;;;;4986495;28;20133;-81
2024/02/27 05:38:42;;;;;;;0.43;0.30;;;15.90;70.50;;;;;;4988832;28;20575;-80
2024/02/27 05:41:08;;;;;;;1.10;0.60;;;15.90;70.60;;;;;;4984802;28;20452;-80
2024/02/27 05:43:33;;;;;;;0.63;0.40;;;15.90;70.40;;;;;;4987274;28;20076;-81
2024/02/27 05:45:59;;;;;;;0.38;0.38;;;15.90;69.90;;;;;;4985788;28;20759;-79
2024/02/27 05:48:24;;;;;;;0.50;0.50;;;15.90;70.40;;;;;;4985013;28;20030;-80
2024/02/27 05:50:50;;;;;;;0.50;0.40;;;15.90;70.10;;;;;;4990068;28;20507;-80
2024/02/27 05:53:16;;;;;;;0.50;0.45;;;15.90;70.30;;;;;;4988484;28;20030;-79
2024/02/27 05:55:41;;;;;;;0.43;0.30;;;15.90;70.50;;;;;;4984669;28;20042;-78
2024/02/27 05:58:07;;;;;;;0.60;0.40;;;15.90;70.70;;;;;;4987653;28;20030;-80
2024/02/27 06:00:33;;;;;;;0.43;0.38;;;15.90;70.60;;;;;;5001895;28;20061;-81
2024/02/27 06:02:58;;;;;;;0.60;0.30;;;15.90;69.70;;;;;;4989463;28;20047;-79
2024/02/27 06:05:24;;;;;;;0.63;0.50;;;15.90;71.30;;;;;;4992832;28;20755;-79
2024/02/27 06:07:51;;;;;;;0.40;0.30;;;15.90;70.50;;;;;;4991641;28;20038;-79
2024/02/27 06:10:17;;;;;;;0.20;0.20;;;15.90;70.60;;;;;;4983880;28;20049;-79
2024/02/27 06:12:42;;;;;;;1.58;0.40;;;15.90;70.40;;;;;;4990223;28;20038;-79
2024/02/27 06:15:09;;;;;;;0.45;0.40;;;15.90;70.50;;;;;;4995292;28;20046;-79
2024/02/27 06:17:34;;;;;;;0.80;0.40;;;15.90;70.60;;;;;;4987227;28;20070;-79
2024/02/27 06:20:02;;;;;;;1.15;0.50;;;15.90;70.70;;;;;;4990047;28;20104;-79
2024/02/27 06:22:29;;;;;;;0.55;0.30;;;15.90;70.70;;;;;;4986880;28;20027;-80
2024/02/27 06:24:55;;;;;;;0.30;0.20;;;15.90;70.90;;;;;;4991299;28;20053;-79
2024/02/27 06:27:20;;;;;;;0.40;0.40;;;15.90;70.80;;;;;;4985146;28;20034;-80
2024/02/27 06:29:46;;;;;;;2.22;0.70;;;15.90;70.30;;;;;;4973210;28;20050;-79
2024/02/27 06:32:11;;;;;;;1.63;0.70;;;16.00;70.40;;;;;;4992531;28;20124;-79
2024/02/27 06:34:37;;;;;;;1.60;0.52;;;16.00;70.60;;;;;;4992592;28;20109;-79
2024/02/27 06:37:03;;;;;;;1.63;0.63;;;16.10;70.80;;;;;;4991167;28;20089;-81
2024/02/27 06:39:30;;;;;;;1.23;0.70;;;16.00;71.30;;;;;;4985884;28;20045;-81
2024/02/27 06:41:55;;;;;;;4.32;1.17;;;16.00;72.80;;;;;;4982301;28;20109;-80
2024/02/27 06:44:21;;;;;;;0.70;0.70;;;16.00;73.10;;;;;;4986422;28;20448;-79
2024/02/27 06:46:46;;;;;;;3.00;0.80;;;16.00;74.20;;;;;;4994137;28;20464;-81
2024/02/27 06:49:12;;;;;;;0.70;0.60;;;16.10;73.50;;;;;;4992919;28;20046;-81
2024/02/27 06:51:38;;;;;;;0.63;0.60;;;16.10;73.30;;;;;;4990557;28;20042;-84
2024/02/27 06:54:04;;;;;;;1.33;0.90;;;16.10;74.20;;;;;;5008901;28;20401;-83
2024/02/27 06:56:30;;;;;;;0.70;0.63;;;16.20;74.00;;;;;;4969671;28;20046;-82
2024/02/27 06:58:56;;;;;;;1.65;0.77;;;16.20;74.10;;;;;;4986361;28;20581;-80
2024/02/27 07:01:23;;;;;;;0.65;0.65;;;16.10;74.60;;;;;;4983303;28;20038;-81
2024/02/27 07:03:50;;;;;;;1.17;0.80;;;16.20;75.20;;;;;;4967652;28;20416;-84
2024/02/27 07:06:16;;;;;;;0.47;0.47;;;16.20;76.30;;;;;;4967630;28;20125;-78
2024/02/27 07:08:42;;;;;;;1.85;0.60;;;16.20;76.00;;;;;;4988556;28;20463;-80
2024/02/27 07:11:08;;;;;;;0.50;0.50;;;16.20;76.30;;;;;;4982066;28;20053;-81
2024/02/27 07:13:34;;;;;;;0.80;0.60;;;16.20;75.90;;;;;;4977261;28;20121;-81
2024/02/27 07:15:59;;;;;;;0.77;0.60;;;16.20;76.10;;;;;;4990736;28;20030;-78
2024/02/27 07:18:25;;;;;;;3.35;0.70;;;16.20;76.20;;;;;;4984808;28;20070;-79
2024/02/27 07:20:51;;;;;;;1.00;0.60;;;16.20;76.30;;;;;;4985796;28;20062;-80
2024/02/27 07:23:16;;;;;;;0.82;0.82;;;16.30;77.10;;;;;;4984793;28;20124;-79
2024/02/27 07:25:42;;;;;;;0.93;0.70;;;16.40;76.70;;;;;;4983591;28;20101;-78
2024/02/27 07:28:07;;;;;;;0.77;0.77;;;16.40;77.00;;;;;;4985745;28;20053;-79
2024/02/27 07:30:34;;;;;;;3.05;0.90;;;16.40;76.80;;;;;;4985736;28;20126;-77
2024/02/27 07:32:59;;;;;;;2.38;1.10;;;16.50;76.80;;;;;;4986727;28;20052;-77
2024/02/27 07:35:25;;;;;;;1.30;0.80;;;16.60;76.30;;;;;;4979651;28;20047;-78
2024/02/27 07:37:51;;;;;;;2.67;0.70;;;16.60;74.40;;;;;;4989004;28;20117;-78
2024/02/27 07:40:17;;;;;;;0.75;0.70;;;16.60;74.40;;;;;;4987895;28;20042;-78
2024/02/27 07:42:42;;;;;;;1.45;0.80;;;16.60;76.20;;;;;;4988366;28;20399;-78
2024/02/27 07:45:08;;;;;;;0.98;0.63;;;16.50;77.20;;;;;;4982503;28;20141;-77
2024/02/27 07:47:34;;;;;;;1.35;0.68;;;16.50;76.70;;;;;;4995190;28;20053;-77
2024/02/27 07:49:59;;;;;;;0.70;0.70;;;16.50;76.30;;;;;;4991144;28;20046;-77
2024/02/27 07:52:25;;;;;;;1.95;0.70;;;16.60;76.40;;;;;;4978589;28;20042;-76
2024/02/27 07:54:51;;;;;;;4.25;0.93;;;16.50;76.30;;;;;;5001671;28;20455;-77
2024/02/27 07:57:16;;;;;;;2.47;0.57;;;16.50;76.00;;;;;;4987955;28;20057;-77
2024/02/27 07:59:42;;;;;;;3.60;0.70;;;16.40;76.10;;;;;;4963852;28;20040;-77
2024/02/27 08:02:07;;;;;;;1.98;0.50;;;16.40;76.10;;;;;;4992727;28;20522;-77
2024/02/27 08:04:33;;;;;;;0.95;0.47;;;16.40;76.00;;;;;;4986148;28;20189;-77
2024/02/27 08:06:58;;;;;;;0.82;0.60;;;16.30;76.20;;;;;;4982513;28;20122;-77
2024/02/27 08:09:25;;;;;;;3.55;1.25;;;16.30;76.10;;;;;;4976191;28;20464;-77
2024/02/27 08:11:51;;;;;;;1.45;0.50;;;16.30;76.20;;;;;;4983040;28;20049;-77
2024/02/27 08:14:17;;;;;;;4.10;0.60;;;16.30;76.30;;;;;;4980775;28;20042;-78
2024/02/27 08:16:43;;;;;;;1.15;0.80;;;16.30;76.10;;;;;;4968231;28;20858;-78
2024/02/27 08:19:08;;;;;;;1.30;0.70;;;16.30;76.30;;;;;;4965707;28;20042;-78
2024/02/27 08:21:34;;;;;;;2.67;0.50;;;16.30;76.60;;;;;;4964612;28;20043;-77
2024/02/27 08:24:03;;;;;;;1.75;0.60;;;16.30;76.30;;;;;;4962202;28;20055;-78
2024/02/27 08:26:28;;;;;;;1.48;0.93;;;16.20;76.30;;;;;;4958005;28;20276;-80
2024/02/27 08:28:55;;;;;;;0.80;0.75;;;16.30;76.30;;;;;;4982521;28;20499;-77
2024/02/27 08:31:22;;;;;;;2.03;0.77;;;16.20;76.20;;;;;;4978183;28;20031;-77
2024/02/27 08:33:48;;;;;;;0.52;0.50;;;16.30;76.90;;;;;;4980149;28;20122;-78
2024/02/27 08:36:14;;;;;;;0.85;0.50;;;16.30;76.20;;;;;;4971083;28;20144;-77
2024/02/27 08:38:42;;;;;;;1.98;0.77;;;16.20;76.20;;;;;;4984494;28;20050;-77
2024/02/27 08:41:08;;;;;;;1.38;0.60;;;16.30;76.20;;;;;;4986576;28;20050;-77
2024/02/27 08:43:34;;;;;;;1.60;0.57;;;16.20;76.40;;;;;;4981659;28;20057;-77
2024/02/27 08:45:59;;;;;;;0.45;0.40;;;16.20;76.30;;;;;;4991059;28;20176;-77
2024/02/27 08:48:25;;;;;;;1.95;0.60;;;16.20;76.30;;;;;;4988096;28;20046;-76
2024/02/27 08:50:50;;;;;;;1.70;0.70;;;16.20;76.50;;;;;;4983950;28;20472;-77
2024/02/27 08:53:16;;;;;;;0.38;0.30;;;16.20;76.40;;;;;;4984405;28;20085;-77
2024/02/27 08:55:42;;;;;;;0.70;0.50;;;16.20;76.50;;;;;;4980070;28;20062;-76
2024/02/27 08:58:07;;;;;;;1.42;0.98;;;16.20;76.30;;;;;;4979893;28;20042;-77
2024/02/27 09:00:33;;;;;;;1.40;0.50;;;16.20;76.00;;;;;;4978024;28;20709;-78
2024/02/27 09:02:58;;;;;;;0.60;0.60;;;16.20;76.30;;;;;;4978939;28;20042;-77
2024/02/27 09:05:24;;;;;;;0.60;0.40;;;16.20;76.60;;;;;;4985173;28;20134;-76
2024/02/27 09:07:50;;;;;;;1.58;0.50;;;16.30;76.70;;;;;;4983500;28;20052;-76
2024/02/27 09:10:17;;;;;;;0.73;0.38;;;16.30;76.30;;;;;;4984003;28;20058;-77
2024/02/27 09:12:43;;;;;;;1.52;0.60;;;16.40;76.40;;;;;;4985231;28;20046;-77
2024/02/27 09:15:08;;;;;;;0.63;0.60;;;16.40;76.30;;;;;;4986995;28;20094;-77
2024/02/27 09:17:35;;;;;;;0.40;0.30;;;16.40;76.60;;;;;;4981698;28;20042;-77
2024/02/27 09:20:01;;;;;;;0.68;0.32;;;16.40;76.60;;;;;;4991787;28;20042;-77
2024/02/27 09:22:27;;;;;;;0.40;0.40;;;16.40;76.50;;;;;;4982694;28;20093;-76
2024/02/27 09:24:52;;;;;;;0.65;0.50;;;16.50;76.60;;;;;;4989914;28;20543;-77
2024/02/27 09:27:23;;;;;;;1.77;0.47;;;16.50;76.70;;;;;;4987207;28;20044;-77
2024/02/27 09:29:48;;;;;;;0.77;0.47;;;16.50;76.80;;;;;;4982126;28;20062;-77
2024/02/27 09:32:16;;;;;;;0.57;0.40;;;16.50;76.70;;;;;;4985773;28;20052;-77
2024/02/27 09:34:42;;;;;;;1.58;0.45;;;16.50;76.50;;;;;;4985831;28;20046;-77
2024/02/27 09:37:08;;;;;;;0.63;0.30;;;16.50;76.70;;;;;;4986067;28;20042;-77
2024/02/27 09:39:33;;;;;;;1.40;0.70;;;16.50;76.50;;;;;;4981229;28;20041;-77
2024/02/27 09:42:05;;;;;;;0.52;0.32;;;16.50;76.60;;;;;;4982170;28;20101;-77
2024/02/27 09:44:30;;;;;;;0.80;0.43;;;16.50;77.70;;;;;;4985857;28;20512;-77
2024/02/27 09:46:56;;;;;;;0.47;0.40;;;16.50;76.60;;;;;;4988754;28;20068;-77
2024/02/27 09:49:22;;;;;;;0.63;0.38;;;16.60;76.10;;;;;;4988071;28;20046;-77
2024/02/27 09:51:48;;;;;;;2.35;0.60;;;16.60;76.30;;;;;;4996656;28;20743;-77
2024/02/27 09:54:42;;;;;;;0.82;0.20;;;16.60;76.10;;;;;;4963985;28;20147;-78
2024/02/27 09:57:42;;;;;;;0.60;0.27;;;16.60;75.90;;;;;;4998834;28;20046;-77
2024/02/27 10:00:26;;;;;;;0.88;0.50;;;16.60;75.70;;;;;;4986233;28;20042;-77
2024/02/27 10:03:07;;;;;;;0.52;0.30;;;16.60;75.60;;;;;;4981607;28;20097;-77
2024/02/27 10:05:51;;;;;;;0.20;0.20;;;16.60;75.60;;;;;;4982152;28;20062;-77
2024/02/27 10:08:36;;;;;;;0.60;0.38;;;16.60;75.00;;;;;;4985012;28;20760;-77
2024/02/27 10:11:01;;;;;;;;;;;16.60;75.30;;;;;;5010800;28;20030;-77
2024/02/27 10:16:50;;;;;;;1.17;0.30;;;16.60;74.80;;;;;;4977119;28;20308;-77
2024/02/27 10:19:18;;;;;;;0.52;0.30;;;16.60;74.90;;;;;;4964794;28;20534;-77
2024/02/27 10:21:43;;;;;;;0.60;0.40;;;16.60;75.00;;;;;;4986899;28;20539;-77
2024/02/27 10:24:09;;;;;;;0.50;0.50;;;16.60;74.90;;;;;;4985529;28;20052;-77
2024/02/27 10:27:07;;;;;;;1.92;0.30;;;16.60;74.60;;;;;;4988786;28;20026;-77
2024/02/27 10:30:09;;;;;;;0.93;0.40;;;16.60;74.30;;;;;;4992796;28;20063;-77
2024/02/27 10:33:08;;;;;;;1.17;0.10;;;16.70;74.50;;;;;;4982465;28;20109;-77
2024/02/27 10:36:11;;;;;;;0.75;0.25;;;16.70;74.60;;;;;;4987181;28;20025;-77
2024/02/27 10:38:49;;;;;;;0.25;0.20;;;16.70;74.80;;;;;;4989721;28;20018;-77
2024/02/27 10:41:33;;;;;;;1.35;0.40;;;16.70;74.70;;;;;;4977428;28;20388;-77
2024/02/27 10:44:21;;;;;;;;;;;16.70;74.40;;;;;;4980276;28;20396;-77
2024/02/27 10:47:05;;;;;;;0.50;0.22;;;16.70;74.30;;;;;;4980302;28;20445;-76
2024/02/27 10:49:48;;;;;;;0.30;0.25;;;16.80;74.00;;;;;;4960397;28;20043;-77
2024/02/27 10:52:34;;;;;;;0.73;0.30;;;16.80;74.00;;;;;;4979039;28;20038;-77
2024/02/27 10:55:19;;;;;;;1.02;0.30;;;16.80;73.90;;;;;;4975491;28;20045;-77
2024/02/27 10:58:03;;;;;;;;;;;16.80;74.00;;;;;;4978306;28;20054;-74
2024/02/27 11:01:06;;;;;;;0.52;0.30;;;16.80;73.50;;;;;;4999528;28;19933;-74
2024/02/27 11:04:06;;;;;;;0.50;0.22;;;16.80;73.60;;;;;;4964730;28;20507;-75
2024/02/27 11:07:11;;;;;;;0.30;0.30;;;16.80;73.60;;;;;;4967025;28;20042;-74
2024/02/27 11:10:08;;;;;;;0.63;0.20;;;16.80;73.50;;;;;;4971295;28;20040;-74
2024/02/27 11:13:11;;;;;;;0.30;0.28;;;16.70;74.00;;;;;;4966262;28;20634;-74
2024/02/27 11:19:02;;;;;;;0.20;0.20;;;16.60;74.70;;;;;;4976641;28;20569;-75
2024/02/27 11:21:27;;;;;;;0.38;0.22;;;16.70;74.60;;;;;;4958067;28;20822;-76
2024/02/27 11:23:56;;;;;;;2.65;0.40;;;16.70;73.50;;;;;;4956210;28;20085;-75
2024/02/27 11:26:41;;;;;;;2.30;0.30;;;16.80;73.30;;;;;;4978759;28;20113;-75
2024/02/27 11:29:37;;;;;;;0.95;0.55;;;16.80;72.60;;;;;;4974230;28;20118;-75
2024/02/27 11:32:37;;;;;;;1.48;0.38;;;16.90;71.70;;;;;;4960657;28;20029;-76
2024/02/27 11:35:37;;;;;;;0.60;0.38;;;16.90;71.60;;;;;;4989893;28;20049;-75
2024/02/27 11:38:37;;;;;;;0.60;0.20;;;16.90;71.30;;;;;;5006774;28;20052;-76
2024/02/27 11:41:21;;;;;;;0.28;0.28;;;16.90;71.20;;;;;;4995342;28;20061;-76
2024/02/27 11:44:21;;;;;;;0.50;0.30;;;16.90;72.00;;;;;;4995881;28;20053;-75
2024/02/27 11:47:36;;;;;;;0.40;0.30;;;16.90;71.30;;;;;;4974028;28;20532;-76
2024/02/27 11:50:06;;;;;;;0.22;0.20;;;16.90;71.10;;;;;;4976563;28;20030;-76
2024/02/27 11:52:50;;;;;;;0.38;0.13;;;17.00;71.00;;;;;;4970146;28;21230;-75
2024/02/27 11:56:03;;;;;;;0.68;0.10;;;16.90;71.20;;;;;;4966967;28;20030;-76
2024/02/27 11:59:12;;;;;;;1.65;0.43;;;17.00;71.00;;;;;;4989300;28;20150;-76
2024/02/27 12:02:16;;;;;;;1.55;0.20;;;16.90;70.80;;;;;;4976067;28;20136;-76
2024/02/27 12:05:19;;;;;;;0.25;0.20;;;16.90;70.80;;;;;;4975356;28;20104;-76
2024/02/27 12:08:04;;;;;;;0.45;0.15;;;17.00;70.80;;;;;;4974623;28;20376;-76
2024/02/27 12:10:35;;;;;;;0.43;0.40;;;17.00;70.80;;;;;;4976437;28;20999;-75
2024/02/27 12:13:32;;;;;;;0.38;0.30;;;16.90;70.50;;;;;;4987039;28;20117;-76
2024/02/27 12:16:26;;;;;;;0.47;0.17;;;17.00;70.40;;;;;;4977836;28;20412;-76
2024/02/27 12:19:00;;;;;;;0.30;0.10;;;17.00;70.40;;;;;;4957886;28;20044;-76
2024/02/27 12:28:41;;;;;;;0.52;0.35;;;17.00;70.10;;;;;;4971846;28;20085;-76
2024/02/27 12:31:19;;;;;;;0.20;0.20;;;17.00;70.20;;;;;;4973477;28;20022;-76
2024/02/27 12:34:07;;;;;;;0.20;0.20;;;17.00;70.20;;;;;;4992602;28;20124;-76
2024/02/27 12:36:50;;;;;;;0.35;0.22;;;17.00;69.90;;;;;;4973700;28;20397;-76
2024/02/27 12:39:34;;;;;;;0.35;0.20;;;17.00;70.00;;;;;;4972534;28;20431;-76
2024/02/27 12:42:18;;;;;;;0.28;0.20;;;17.00;69.90;;;;;;4954557;28;20093;-76
2024/02/27 12:45:03;;;;;;;1.00;0.25;;;17.00;69.80;;;;;;4959939;28;20058;-76
2024/02/27 12:47:48;;;;;;;0.20;0.15;;;16.90;70.00;;;;;;4958880;28;20031;-75
2024/02/27 12:50:32;;;;;;;0.20;0.20;;;17.00;69.80;;;;;;4964216;28;20084;-76
2024/02/27 12:53:16;;;;;;;0.73;0.20;;;17.00;69.40;;;;;;4977852;28;20499;-76
2024/02/27 12:55:42;;;;;;;0.20;0.20;;;17.00;69.70;;;;;;4978025;28;20418;-77
2024/02/27 12:58:07;;;;;;;0.17;0.10;;;17.00;69.40;;;;;;4979322;28;20046;-76
2024/02/27 13:00:33;;;;;;;0.32;0.20;;;17.00;69.60;;;;;;4980907;28;20614;-75
2024/02/27 13:02:58;;;;;;;0.50;0.30;;;17.00;69.50;;;;;;4966796;28;20465;-75
2024/02/27 13:05:25;;;;;;;1.02;0.25;;;17.00;69.20;;;;;;5003512;28;20415;-76
2024/02/27 13:07:51;;;;;;;0.28;0.20;;;17.10;69.70;;;;;;4979048;28;20042;-75
2024/02/27 13:10:20;;;;;;;0.28;0.20;;;17.10;69.20;;;;;;4999987;28;20064;-75
2024/02/27 13:13:13;;;;;;;1.70;0.30;;;17.10;70.10;;;;;;4983311;28;20042;-75
2024/02/27 13:15:45;;;;;;;0.30;0.25;;;17.00;69.40;;;;;;4974754;28;20496;-76